sensor_id;sensor_type;location;lat;lon;timestamp;temperature;humidity
4548;DHT22;2286;51.570;7.090;2023-07-29T00:00:41;18.80;99.90
4548;DHT22;2286;51.570;7.090;2023-07-29T00:03:08;18.70;99.90
4548;DHT22;2286;51.570;7.090;2023-07-29T00:05:37;18.60;99.90
4548;DHT22;2286;51.570;7.090;2023-07-29T00:08:04;18.60;99.90
4548;DHT22;2286;51.570;7.090;2023-07-29T00:10:32;18.50;99.90
4548;DHT22;2286;51.570;7.090;2023-07-29T00:12:59;18.50;99.90
4548;DHT22;2286;51.570;7.090;2023-07-29T00:15:26;18.40;99.90
4548;DHT22;2286;51.570;7.090;2023-07-29T00:17:52;18.40;99.90
4548;DHT22;2286;51.570;7.090;2023-07-29T00:20:19;18.40;99.90
4548;DHT22;2286;51.570;7.090;2023-07-29T00:22:47;18.30;99.90
4548;DHT22;2286;51.570;7.090;2023-07-29T00:25:15;18.20;99.90
4548;DHT22;2286;51.570;7.090;2023-07-29T00:27:42;18.20;99.90
4548;DHT22;2286;51.570;7.090;2023-07-29T00:30:09;18.30;99.90
4548;DHT22;2286;51.570;7.090;2023-07-29T00:32:36;18.50;99.90
4548;DHT22;2286;51.570;7.090;2023-07-29T00:35:04;18.50;99.90
4548;DHT22;2286;51.570;7.090;2023-07-29T00:37:31;18.60;99.90
4548;DHT22;2286;51.570;7.090;2023-07-29T00:39:59;18.50;99.90
4548;DHT22;2286;51.570;7.090;2023-07-29T00:42:26;18.40;99.90
4548;DHT22;2286;51.570;7.090;2023-07-29T00:44:53;18.40;99.90
4548;DHT22;2286;51.570;7.090;2023-07-29T00:47:20;18.40;99.90
4548;DHT22;2286;51.570;7.090;2023-07-29T00:49:48;18.40;99.90
4548;DHT22;2286;51.570;7.090;2023-07-29T00:52:15;18.30;99.90
4548;DHT22;2286;51.570;7.090;2023-07-29T00:54:42;18.30;99.90
4548;DHT22;2286;51.570;7.090;2023-07-29T00:57:11;18.20;99.90
4548;DHT22;2286;51.570;7.090;2023-07-29T00:59:40;18.20;99.90
4548;DHT22;2286;51.570;7.090;2023-07-29T01:02:08;18.10;99.90
4548;DHT22;2286;51.570;7.090;2023-07-29T01:04:35;18.20;99.90
4548;DHT22;2286;51.570;7.090;2023-07-29T01:07:09;18.20;99.90
4548;DHT22;2286;51.570;7.090;2023-07-29T01:09:45;18.20;99.90
4548;DHT22;2286;51.570;7.090;2023-07-29T01:12:20;18.20;99.90
4548;DHT22;2286;51.570;7.090;2023-07-29T01:14:55;18.20;99.90
4548;DHT22;2286;51.570;7.090;2023-07-29T01:17:28;18.20;99.90
4548;DHT22;2286;51.570;7.090;2023-07-29T01:20:01;18.20;99.90
4548;DHT22;2286;51.570;7.090;2023-07-29T01:22:32;18.30;99.90
4548;DHT22;2286;51.570;7.090;2023-07-29T01:25:00;18.30;99.90
4548;DHT22;2286;51.570;7.090;2023-07-29T01:27:27;18.40;99.90
4548;DHT22;2286;51.570;7.090;2023-07-29T01:29:55;18.30;99.90
4548;DHT22;2286;51.570;7.090;2023-07-29T01:32:28;18.30;99.90
4548;DHT22;2286;51.570;7.090;2023-07-29T01:35:00;18.40;99.90
4548;DHT22;2286;51.570;7.090;2023-07-29T01:37:33;18.50;99.90
4548;DHT22;2286;51.570;7.090;2023-07-29T01:40:02;18.50;99.90
4548;DHT22;2286;51.570;7.090;2023-07-29T01:42:30;18.50;99.90
4548;DHT22;2286;51.570;7.090;2023-07-29T01:44:57;18.60;99.90
4548;DHT22;2286;51.570;7.090;2023-07-29T01:47:25;18.50;99.90
4548;DHT22;2286;51.570;7.090;2023-07-29T01:49:51;18.50;99.90
4548;DHT22;2286;51.570;7.090;2023-07-29T01:52:18;18.50;99.90
4548;DHT22;2286;51.570;7.090;2023-07-29T01:54:45;18.50;99.90
4548;DHT22;2286;51.570;7.090;2023-07-29T01:57:13;18.40;99.90
4548;DHT22;2286;51.570;7.090;2023-07-29T01:59:40;18.40;99.90
4548;DHT22;2286;51.570;7.090;2023-07-29T02:02:07;18.40;99.90
4548;DHT22;2286;51.570;7.090;2023-07-29T02:04:33;18.50;99.90
4548;DHT22;2286;51.570;7.090;2023-07-29T02:07:00;18.50;99.90
4548;DHT22;2286;51.570;7.090;2023-07-29T02:09:27;18.50;99.90
4548;DHT22;2286;51.570;7.090;2023-07-29T02:11:54;18.50;99.90
4548;DHT22;2286;51.570;7.090;2023-07-29T02:14:23;18.50;99.90
4548;DHT22;2286;51.570;7.090;2023-07-29T02:16:49;18.50;99.90
4548;DHT22;2286;51.570;7.090;2023-07-29T02:19:16;18.50;99.90
4548;DHT22;2286;51.570;7.090;2023-07-29T02:21:43;18.50;99.90
4548;DHT22;2286;51.570;7.090;2023-07-29T02:24:10;18.50;99.90
4548;DHT22;2286;51.570;7.090;2023-07-29T02:26:37;18.50;99.90
4548;DHT22;2286;51.570;7.090;2023-07-29T02:29:03;18.50;99.90
4548;DHT22;2286;51.570;7.090;2023-07-29T02:31:31;18.50;99.90
4548;DHT22;2286;51.570;7.090;2023-07-29T02:34:00;18.50;99.90
4548;DHT22;2286;51.570;7.090;2023-07-29T02:36:27;18.50;99.90
4548;DHT22;2286;51.570;7.090;2023-07-29T02:38:53;18.50;99.90
4548;DHT22;2286;51.570;7.090;2023-07-29T02:41:20;18.60;99.90
4548;DHT22;2286;51.570;7.090;2023-07-29T02:43:49;18.60;99.90
4548;DHT22;2286;51.570;7.090;2023-07-29T02:46:16;18.60;99.90
4548;DHT22;2286;51.570;7.090;2023-07-29T02:48:44;18.60;99.90
4548;DHT22;2286;51.570;7.090;2023-07-29T02:51:11;18.70;99.90
4548;DHT22;2286;51.570;7.090;2023-07-29T02:53:38;18.70;99.90
4548;DHT22;2286;51.570;7.090;2023-07-29T02:56:05;18.70;99.90
4548;DHT22;2286;51.570;7.090;2023-07-29T02:58:35;18.70;99.90
4548;DHT22;2286;51.570;7.090;2023-07-29T03:01:03;18.80;99.90
4548;DHT22;2286;51.570;7.090;2023-07-29T03:03:30;18.80;99.90
4548;DHT22;2286;51.570;7.090;2023-07-29T03:05:59;18.80;99.90
4548;DHT22;2286;51.570;7.090;2023-07-29T03:08:27;18.80;99.90
4548;DHT22;2286;51.570;7.090;2023-07-29T03:10:54;18.80;99.90
4548;DHT22;2286;51.570;7.090;2023-07-29T03:13:21;18.80;99.90
4548;DHT22;2286;51.570;7.090;2023-07-29T03:15:47;18.80;99.90
4548;DHT22;2286;51.570;7.090;2023-07-29T03:18:14;18.80;99.90
4548;DHT22;2286;51.570;7.090;2023-07-29T03:20:41;18.90;99.90
4548;DHT22;2286;51.570;7.090;2023-07-29T03:23:09;18.90;99.90
4548;DHT22;2286;51.570;7.090;2023-07-29T03:25:36;19.00;99.90
4548;DHT22;2286;51.570;7.090;2023-07-29T03:28:03;19.00;99.90
4548;DHT22;2286;51.570;7.090;2023-07-29T03:30:30;19.00;99.90
4548;DHT22;2286;51.570;7.090;2023-07-29T03:32:57;18.90;99.90
4548;DHT22;2286;51.570;7.090;2023-07-29T03:35:24;19.00;99.90
4548;DHT22;2286;51.570;7.090;2023-07-29T03:37:50;18.90;99.90
4548;DHT22;2286;51.570;7.090;2023-07-29T03:40:18;18.90;99.90
4548;DHT22;2286;51.570;7.090;2023-07-29T03:42:45;18.90;99.90
4548;DHT22;2286;51.570;7.090;2023-07-29T03:45:12;19.00;99.90
4548;DHT22;2286;51.570;7.090;2023-07-29T03:47:39;19.00;99.90
4548;DHT22;2286;51.570;7.090;2023-07-29T03:50:06;19.00;99.90
4548;DHT22;2286;51.570;7.090;2023-07-29T03:52:33;19.10;99.90
4548;DHT22;2286;51.570;7.090;2023-07-29T03:55:00;19.10;99.90
4548;DHT22;2286;51.570;7.090;2023-07-29T03:57:28;19.00;99.90
4548;DHT22;2286;51.570;7.090;2023-07-29T03:59:55;19.00;99.90
4548;DHT22;2286;51.570;7.090;2023-07-29T04:02:22;19.10;99.90
4548;DHT22;2286;51.570;7.090;2023-07-29T04:04:49;19.00;99.90
4548;DHT22;2286;51.570;7.090;2023-07-29T04:07:15;19.00;99.90
4548;DHT22;2286;51.570;7.090;2023-07-29T04:09:42;19.00;99.90
4548;DHT22;2286;51.570;7.090;2023-07-29T04:12:09;19.00;99.90
4548;DHT22;2286;51.570;7.090;2023-07-29T04:14:38;19.00;99.90
4548;DHT22;2286;51.570;7.090;2023-07-29T04:17:05;19.00;99.90
4548;DHT22;2286;51.570;7.090;2023-07-29T04:19:32;19.00;99.90
4548;DHT22;2286;51.570;7.090;2023-07-29T04:21:58;19.00;99.90
4548;DHT22;2286;51.570;7.090;2023-07-29T04:24:25;19.00;99.90
4548;DHT22;2286;51.570;7.090;2023-07-29T04:26:52;19.00;99.90
4548;DHT22;2286;51.570;7.090;2023-07-29T04:29:19;19.00;99.90
4548;DHT22;2286;51.570;7.090;2023-07-29T04:31:47;18.90;99.90
4548;DHT22;2286;51.570;7.090;2023-07-29T04:34:14;18.90;99.90
4548;DHT22;2286;51.570;7.090;2023-07-29T04:36:41;18.90;99.90
4548;DHT22;2286;51.570;7.090;2023-07-29T04:39:07;19.00;99.90
4548;DHT22;2286;51.570;7.090;2023-07-29T04:41:34;19.00;99.90
4548;DHT22;2286;51.570;7.090;2023-07-29T04:44:01;19.00;99.90
4548;DHT22;2286;51.570;7.090;2023-07-29T04:46:28;19.00;99.90
4548;DHT22;2286;51.570;7.090;2023-07-29T04:48:56;19.00;99.90
4548;DHT22;2286;51.570;7.090;2023-07-29T04:51:24;18.90;99.90
4548;DHT22;2286;51.570;7.090;2023-07-29T04:53:51;18.80;99.90
4548;DHT22;2286;51.570;7.090;2023-07-29T04:56:17;18.80;99.90
4548;DHT22;2286;51.570;7.090;2023-07-29T04:58:44;18.80;99.90
4548;DHT22;2286;51.570;7.090;2023-07-29T05:01:11;18.80;99.90
4548;DHT22;2286;51.570;7.090;2023-07-29T05:03:38;18.80;99.90
4548;DHT22;2286;51.570;7.090;2023-07-29T05:06:06;18.80;99.90
4548;DHT22;2286;51.570;7.090;2023-07-29T05:08:33;18.80;99.90
4548;DHT22;2286;51.570;7.090;2023-07-29T05:11:00;18.80;99.90
4548;DHT22;2286;51.570;7.090;2023-07-29T05:13:27;18.80;99.90
4548;DHT22;2286;51.570;7.090;2023-07-29T05:15:53;18.80;99.90
4548;DHT22;2286;51.570;7.090;2023-07-29T05:18:20;18.70;99.90
4548;DHT22;2286;51.570;7.090;2023-07-29T05:20:47;18.70;99.90
4548;DHT22;2286;51.570;7.090;2023-07-29T05:23:15;18.70;99.90
4548;DHT22;2286;51.570;7.090;2023-07-29T05:25:42;18.70;99.90
4548;DHT22;2286;51.570;7.090;2023-07-29T05:28:09;18.70;99.90
4548;DHT22;2286;51.570;7.090;2023-07-29T05:30:36;18.70;99.90
4548;DHT22;2286;51.570;7.090;2023-07-29T05:33:05;18.70;99.90
4548;DHT22;2286;51.570;7.090;2023-07-29T05:35:33;18.70;99.90
4548;DHT22;2286;51.570;7.090;2023-07-29T05:38:00;18.70;99.90
4548;DHT22;2286;51.570;7.090;2023-07-29T05:40:28;18.70;99.90
4548;DHT22;2286;51.570;7.090;2023-07-29T05:42:54;18.70;99.90
4548;DHT22;2286;51.570;7.090;2023-07-29T05:45:21;18.70;99.90
4548;DHT22;2286;51.570;7.090;2023-07-29T05:47:48;18.70;99.90
4548;DHT22;2286;51.570;7.090;2023-07-29T05:50:15;18.70;1.00
4548;DHT22;2286;51.570;7.090;2023-07-29T05:52:42;18.70;99.90
4548;DHT22;2286;51.570;7.090;2023-07-29T05:55:09;18.70;99.90
4548;DHT22;2286;51.570;7.090;2023-07-29T05:57:37;18.70;1.00
4548;DHT22;2286;51.570;7.090;2023-07-29T06:00:05;18.70;99.90
4548;DHT22;2286;51.570;7.090;2023-07-29T06:02:32;18.60;22.20
4548;DHT22;2286;51.570;7.090;2023-07-29T06:04:58;18.60;99.90
4548;DHT22;2286;51.570;7.090;2023-07-29T06:07:26;18.70;1.00
4548;DHT22;2286;51.570;7.090;2023-07-29T06:09:55;18.60;99.90
4548;DHT22;2286;51.570;7.090;2023-07-29T06:12:23;18.60;1.00
4548;DHT22;2286;51.570;7.090;2023-07-29T06:14:51;18.60;99.90
4548;DHT22;2286;51.570;7.090;2023-07-29T06:17:18;18.60;99.90
4548;DHT22;2286;51.570;7.090;2023-07-29T06:19:45;18.70;1.00
4548;DHT22;2286;51.570;7.090;2023-07-29T06:22:11;18.70;99.90
4548;DHT22;2286;51.570;7.090;2023-07-29T06:24:38;18.60;98.60
4548;DHT22;2286;51.570;7.090;2023-07-29T06:27:05;18.70;1.00
4548;DHT22;2286;51.570;7.090;2023-07-29T06:29:32;18.80;1.00
4548;DHT22;2286;51.570;7.090;2023-07-29T06:32:01;18.80;99.90
4548;DHT22;2286;51.570;7.090;2023-07-29T06:34:28;18.70;99.90
4548;DHT22;2286;51.570;7.090;2023-07-29T06:36:54;18.80;99.90
4548;DHT22;2286;51.570;7.090;2023-07-29T06:39:21;18.80;99.90
4548;DHT22;2286;51.570;7.090;2023-07-29T06:41:48;18.80;99.90
4548;DHT22;2286;51.570;7.090;2023-07-29T06:44:15;18.80;1.00
4548;DHT22;2286;51.570;7.090;2023-07-29T06:46:42;18.90;1.00
4548;DHT22;2286;51.570;7.090;2023-07-29T06:49:10;19.00;1.00
4548;DHT22;2286;51.570;7.090;2023-07-29T06:51:37;19.00;1.00
4548;DHT22;2286;51.570;7.090;2023-07-29T06:54:03;19.00;99.90
4548;DHT22;2286;51.570;7.090;2023-07-29T06:56:30;19.10;99.90
4548;DHT22;2286;51.570;7.090;2023-07-29T06:58:57;19.00;99.90
4548;DHT22;2286;51.570;7.090;2023-07-29T07:01:24;19.00;62.90
4548;DHT22;2286;51.570;7.090;2023-07-29T07:03:51;19.00;99.90
4548;DHT22;2286;51.570;7.090;2023-07-29T07:06:21;19.00;1.00
4548;DHT22;2286;51.570;7.090;2023-07-29T07:08:50;18.90;1.00
4548;DHT22;2286;51.570;7.090;2023-07-29T07:11:17;19.00;1.00
4548;DHT22;2286;51.570;7.090;2023-07-29T07:13:45;19.00;1.00
4548;DHT22;2286;51.570;7.090;2023-07-29T07:16:12;19.20;1.00
4548;DHT22;2286;51.570;7.090;2023-07-29T07:18:39;19.20;99.90
4548;DHT22;2286;51.570;7.090;2023-07-29T07:21:06;19.20;99.90
4548;DHT22;2286;51.570;7.090;2023-07-29T07:23:35;19.20;1.00
4548;DHT22;2286;51.570;7.090;2023-07-29T07:26:02;19.30;1.00
4548;DHT22;2286;51.570;7.090;2023-07-29T07:28:29;19.30;1.00
4548;DHT22;2286;51.570;7.090;2023-07-29T07:30:55;19.40;99.90
4548;DHT22;2286;51.570;7.090;2023-07-29T07:33:22;19.60;99.90
4548;DHT22;2286;51.570;7.090;2023-07-29T07:35:49;19.90;99.90
4548;DHT22;2286;51.570;7.090;2023-07-29T07:38:16;20.00;1.00
4548;DHT22;2286;51.570;7.090;2023-07-29T07:40:52;20.10;1.00
4548;DHT22;2286;51.570;7.090;2023-07-29T07:43:19;20.00;99.90
4548;DHT22;2286;51.570;7.090;2023-07-29T07:45:46;20.00;99.90
4548;DHT22;2286;51.570;7.090;2023-07-29T07:48:13;19.90;99.90
4548;DHT22;2286;51.570;7.090;2023-07-29T07:50:42;19.90;99.90
4548;DHT22;2286;51.570;7.090;2023-07-29T07:53:08;19.90;12.00
4548;DHT22;2286;51.570;7.090;2023-07-29T07:55:35;20.10;99.90
4548;DHT22;2286;51.570;7.090;2023-07-29T07:58:03;20.20;1.00
4548;DHT22;2286;51.570;7.090;2023-07-29T08:00:30;20.10;1.00
4548;DHT22;2286;51.570;7.090;2023-07-29T08:02:57;20.20;1.00
4548;DHT22;2286;51.570;7.090;2023-07-29T08:05:24;20.30;99.90
4548;DHT22;2286;51.570;7.090;2023-07-29T08:07:50;20.20;1.00
4548;DHT22;2286;51.570;7.090;2023-07-29T08:10:17;20.30;1.00
4548;DHT22;2286;51.570;7.090;2023-07-29T08:12:44;20.40;99.90
4548;DHT22;2286;51.570;7.090;2023-07-29T08:15:12;20.40;99.90
4548;DHT22;2286;51.570;7.090;2023-07-29T08:17:39;20.50;99.90
4548;DHT22;2286;51.570;7.090;2023-07-29T08:20:06;20.30;99.90
4548;DHT22;2286;51.570;7.090;2023-07-29T08:22:33;20.50;99.90
4548;DHT22;2286;51.570;7.090;2023-07-29T08:25:00;20.60;1.00
4548;DHT22;2286;51.570;7.090;2023-07-29T08:27:27;20.40;24.20
4548;DHT22;2286;51.570;7.090;2023-07-29T08:29:54;20.50;1.00
4548;DHT22;2286;51.570;7.090;2023-07-29T08:32:22;20.50;1.00
4548;DHT22;2286;51.570;7.090;2023-07-29T08:34:49;20.40;1.00
4548;DHT22;2286;51.570;7.090;2023-07-29T08:37:16;20.40;55.60
4548;DHT22;2286;51.570;7.090;2023-07-29T08:39:42;20.50;91.80
4548;DHT22;2286;51.570;7.090;2023-07-29T08:42:11;20.50;1.00
4548;DHT22;2286;51.570;7.090;2023-07-29T08:44:41;20.30;1.00
4548;DHT22;2286;51.570;7.090;2023-07-29T08:47:08;20.40;1.00
4548;DHT22;2286;51.570;7.090;2023-07-29T08:49:37;20.60;1.00
4548;DHT22;2286;51.570;7.090;2023-07-29T08:52:05;20.70;1.00
4548;DHT22;2286;51.570;7.090;2023-07-29T08:54:33;20.80;1.00
4548;DHT22;2286;51.570;7.090;2023-07-29T08:57:00;20.90;1.00
4548;DHT22;2286;51.570;7.090;2023-07-29T08:59:28;21.10;1.00
4548;DHT22;2286;51.570;7.090;2023-07-29T09:01:56;21.10;99.90
4548;DHT22;2286;51.570;7.090;2023-07-29T09:04:23;21.20;99.90
4548;DHT22;2286;51.570;7.090;2023-07-29T09:06:53;21.40;99.90
4548;DHT22;2286;51.570;7.090;2023-07-29T09:09:21;21.60;1.00
4548;DHT22;2286;51.570;7.090;2023-07-29T09:11:48;21.90;1.00
4548;DHT22;2286;51.570;7.090;2023-07-29T09:14:15;22.20;1.00
4548;DHT22;2286;51.570;7.090;2023-07-29T09:16:42;22.20;1.00
4548;DHT22;2286;51.570;7.090;2023-07-29T09:19:09;22.20;1.00
4548;DHT22;2286;51.570;7.090;2023-07-29T09:21:39;22.20;1.00
4548;DHT22;2286;51.570;7.090;2023-07-29T09:24:07;22.20;1.00
4548;DHT22;2286;51.570;7.090;2023-07-29T09:26:35;22.10;1.00
4548;DHT22;2286;51.570;7.090;2023-07-29T09:29:02;22.30;1.00
4548;DHT22;2286;51.570;7.090;2023-07-29T09:31:29;22.70;99.90
4548;DHT22;2286;51.570;7.090;2023-07-29T09:33:57;22.80;99.90
4548;DHT22;2286;51.570;7.090;2023-07-29T09:36:24;23.10;99.90
4548;DHT22;2286;51.570;7.090;2023-07-29T09:38:53;23.10;99.90
4548;DHT22;2286;51.570;7.090;2023-07-29T09:41:23;23.30;99.90
4548;DHT22;2286;51.570;7.090;2023-07-29T09:43:55;23.60;99.90
4548;DHT22;2286;51.570;7.090;2023-07-29T09:46:23;23.50;99.90
4548;DHT22;2286;51.570;7.090;2023-07-29T09:48:53;23.50;99.90
4548;DHT22;2286;51.570;7.090;2023-07-29T09:51:20;23.50;99.90
4548;DHT22;2286;51.570;7.090;2023-07-29T09:53:48;23.30;99.90
4548;DHT22;2286;51.570;7.090;2023-07-29T09:56:16;23.10;99.90
4548;DHT22;2286;51.570;7.090;2023-07-29T09:58:45;22.50;99.90
4548;DHT22;2286;51.570;7.090;2023-07-29T10:01:12;22.40;1.00
4548;DHT22;2286;51.570;7.090;2023-07-29T10:03:39;22.50;1.00
4548;DHT22;2286;51.570;7.090;2023-07-29T10:06:07;22.40;1.00
4548;DHT22;2286;51.570;7.090;2023-07-29T10:08:34;22.20;1.00
4548;DHT22;2286;51.570;7.090;2023-07-29T10:11:05;22.30;1.00
4548;DHT22;2286;51.570;7.090;2023-07-29T10:13:33;22.40;1.00
4548;DHT22;2286;51.570;7.090;2023-07-29T10:16:01;22.40;1.00
4548;DHT22;2286;51.570;7.090;2023-07-29T10:18:29;22.40;1.00
4548;DHT22;2286;51.570;7.090;2023-07-29T10:20:57;22.40;1.00
4548;DHT22;2286;51.570;7.090;2023-07-29T10:23:25;22.80;1.00
4548;DHT22;2286;51.570;7.090;2023-07-29T10:26:03;23.30;1.00
4548;DHT22;2286;51.570;7.090;2023-07-29T10:28:32;23.70;99.90
4548;DHT22;2286;51.570;7.090;2023-07-29T10:31:03;23.90;99.90
4548;DHT22;2286;51.570;7.090;2023-07-29T10:33:32;24.70;99.90
4548;DHT22;2286;51.570;7.090;2023-07-29T10:36:00;24.90;99.90
4548;DHT22;2286;51.570;7.090;2023-07-29T10:38:27;25.10;99.90
4548;DHT22;2286;51.570;7.090;2023-07-29T10:40:56;25.30;99.90
4548;DHT22;2286;51.570;7.090;2023-07-29T10:43:26;25.80;99.90
4548;DHT22;2286;51.570;7.090;2023-07-29T10:45:55;26.80;99.90
4548;DHT22;2286;51.570;7.090;2023-07-29T10:48:42;27.50;99.90
4548;DHT22;2286;51.570;7.090;2023-07-29T10:51:29;27.20;99.90
4548;DHT22;2286;51.570;7.090;2023-07-29T10:53:57;26.80;99.90
4548;DHT22;2286;51.570;7.090;2023-07-29T10:56:28;26.50;99.90
4548;DHT22;2286;51.570;7.090;2023-07-29T10:58:56;26.00;99.90
4548;DHT22;2286;51.570;7.090;2023-07-29T11:01:28;25.90;99.90
4548;DHT22;2286;51.570;7.090;2023-07-29T11:04:22;26.30;99.90
4548;DHT22;2286;51.570;7.090;2023-07-29T11:07:20;26.00;99.90
4548;DHT22;2286;51.570;7.090;2023-07-29T11:10:02;26.00;99.90
4548;DHT22;2286;51.570;7.090;2023-07-29T11:12:37;27.30;99.90
4548;DHT22;2286;51.570;7.090;2023-07-29T11:15:07;28.10;99.90
4548;DHT22;2286;51.570;7.090;2023-07-29T11:17:39;28.20;99.90
4548;DHT22;2286;51.570;7.090;2023-07-29T11:20:08;27.80;99.90
4548;DHT22;2286;51.570;7.090;2023-07-29T11:22:36;27.40;99.90
4548;DHT22;2286;51.570;7.090;2023-07-29T11:25:03;26.90;99.90
4548;DHT22;2286;51.570;7.090;2023-07-29T11:27:31;26.30;99.90
4548;DHT22;2286;51.570;7.090;2023-07-29T11:29:58;25.50;99.90
4548;DHT22;2286;51.570;7.090;2023-07-29T11:32:26;25.10;99.90
4548;DHT22;2286;51.570;7.090;2023-07-29T11:34:53;24.90;99.90
4548;DHT22;2286;51.570;7.090;2023-07-29T11:37:21;25.10;99.90
4548;DHT22;2286;51.570;7.090;2023-07-29T11:39:47;25.50;99.90
4548;DHT22;2286;51.570;7.090;2023-07-29T11:42:15;25.10;99.90
4548;DHT22;2286;51.570;7.090;2023-07-29T11:44:41;24.90;99.90
4548;DHT22;2286;51.570;7.090;2023-07-29T11:47:09;24.40;99.90
4548;DHT22;2286;51.570;7.090;2023-07-29T11:49:37;24.00;99.90
4548;DHT22;2286;51.570;7.090;2023-07-29T11:52:06;23.70;99.90
4548;DHT22;2286;51.570;7.090;2023-07-29T11:54:35;23.70;99.90
4548;DHT22;2286;51.570;7.090;2023-07-29T11:57:03;24.30;99.90
4548;DHT22;2286;51.570;7.090;2023-07-29T11:59:32;25.30;99.90
4548;DHT22;2286;51.570;7.090;2023-07-29T12:02:00;26.10;99.90
4548;DHT22;2286;51.570;7.090;2023-07-29T12:04:28;25.90;99.90
4548;DHT22;2286;51.570;7.090;2023-07-29T12:06:55;26.00;99.90
4548;DHT22;2286;51.570;7.090;2023-07-29T12:09:23;26.40;99.90
4548;DHT22;2286;51.570;7.090;2023-07-29T12:11:51;26.70;99.90
4548;DHT22;2286;51.570;7.090;2023-07-29T12:14:18;26.80;99.90
4548;DHT22;2286;51.570;7.090;2023-07-29T12:16:48;27.70;99.90
4548;DHT22;2286;51.570;7.090;2023-07-29T12:19:17;28.60;99.90
4548;DHT22;2286;51.570;7.090;2023-07-29T12:21:44;28.90;99.90
4548;DHT22;2286;51.570;7.090;2023-07-29T12:24:12;29.20;99.90
4548;DHT22;2286;51.570;7.090;2023-07-29T12:26:41;28.20;99.90
4548;DHT22;2286;51.570;7.090;2023-07-29T12:29:16;27.70;99.90
4548;DHT22;2286;51.570;7.090;2023-07-29T12:31:45;27.80;99.90
4548;DHT22;2286;51.570;7.090;2023-07-29T12:34:18;27.70;99.90
4548;DHT22;2286;51.570;7.090;2023-07-29T12:36:46;27.00;99.90
4548;DHT22;2286;51.570;7.090;2023-07-29T12:39:16;26.20;99.90
4548;DHT22;2286;51.570;7.090;2023-07-29T12:41:44;27.10;99.90
4548;DHT22;2286;51.570;7.090;2023-07-29T12:44:11;28.30;99.90
4548;DHT22;2286;51.570;7.090;2023-07-29T12:46:39;28.80;99.90
4548;DHT22;2286;51.570;7.090;2023-07-29T12:49:06;28.90;99.90
4548;DHT22;2286;51.570;7.090;2023-07-29T12:51:33;29.20;99.90
4548;DHT22;2286;51.570;7.090;2023-07-29T12:54:00;28.50;99.90
4548;DHT22;2286;51.570;7.090;2023-07-29T12:56:27;28.40;99.90
4548;DHT22;2286;51.570;7.090;2023-07-29T12:58:53;29.50;99.90
4548;DHT22;2286;51.570;7.090;2023-07-29T13:01:20;29.70;99.90
4548;DHT22;2286;51.570;7.090;2023-07-29T13:03:49;29.20;99.90
4548;DHT22;2286;51.570;7.090;2023-07-29T13:06:15;29.10;99.90
4548;DHT22;2286;51.570;7.090;2023-07-29T13:08:42;28.90;99.90
4548;DHT22;2286;51.570;7.090;2023-07-29T13:11:09;28.90;99.90
4548;DHT22;2286;51.570;7.090;2023-07-29T13:13:36;28.80;99.90
4548;DHT22;2286;51.570;7.090;2023-07-29T13:16:03;29.00;99.90
4548;DHT22;2286;51.570;7.090;2023-07-29T13:18:30;29.10;99.90
4548;DHT22;2286;51.570;7.090;2023-07-29T13:20:58;29.60;99.90
4548;DHT22;2286;51.570;7.090;2023-07-29T13:23:26;30.60;99.90
4548;DHT22;2286;51.570;7.090;2023-07-29T13:25:55;30.00;99.90
4548;DHT22;2286;51.570;7.090;2023-07-29T13:28:21;28.70;99.90
4548;DHT22;2286;51.570;7.090;2023-07-29T13:30:48;28.40;99.90
4548;DHT22;2286;51.570;7.090;2023-07-29T13:33:15;27.40;99.90
4548;DHT22;2286;51.570;7.090;2023-07-29T13:35:42;26.90;99.90
4548;DHT22;2286;51.570;7.090;2023-07-29T13:38:10;26.10;99.90
4548;DHT22;2286;51.570;7.090;2023-07-29T13:40:37;25.30;99.90
4548;DHT22;2286;51.570;7.090;2023-07-29T13:43:04;25.20;99.90
4548;DHT22;2286;51.570;7.090;2023-07-29T13:45:31;25.00;99.90
4548;DHT22;2286;51.570;7.090;2023-07-29T13:47:57;24.90;99.90
4548;DHT22;2286;51.570;7.090;2023-07-29T13:50:24;24.80;99.90
4548;DHT22;2286;51.570;7.090;2023-07-29T13:52:51;24.60;99.90
4548;DHT22;2286;51.570;7.090;2023-07-29T13:55:19;24.30;99.90
4548;DHT22;2286;51.570;7.090;2023-07-29T13:57:46;23.90;99.90
4548;DHT22;2286;51.570;7.090;2023-07-29T14:00:13;23.60;99.90
4548;DHT22;2286;51.570;7.090;2023-07-29T14:02:41;22.20;1.00
4548;DHT22;2286;51.570;7.090;2023-07-29T14:05:08;20.00;1.00
4548;DHT22;2286;51.570;7.090;2023-07-29T14:07:35;19.40;99.90
4548;DHT22;2286;51.570;7.090;2023-07-29T14:10:01;19.10;99.90
4548;DHT22;2286;51.570;7.090;2023-07-29T14:12:29;19.10;99.90
4548;DHT22;2286;51.570;7.090;2023-07-29T14:14:56;19.00;99.90
4548;DHT22;2286;51.570;7.090;2023-07-29T14:17:23;18.70;99.90
4548;DHT22;2286;51.570;7.090;2023-07-29T14:19:50;18.30;99.90
4548;DHT22;2286;51.570;7.090;2023-07-29T14:22:17;18.20;99.90
4548;DHT22;2286;51.570;7.090;2023-07-29T14:24:43;18.00;99.90
4548;DHT22;2286;51.570;7.090;2023-07-29T14:27:10;18.10;99.90
4548;DHT22;2286;51.570;7.090;2023-07-29T14:29:38;18.00;99.90
4548;DHT22;2286;51.570;7.090;2023-07-29T14:32:06;17.80;99.90
4548;DHT22;2286;51.570;7.090;2023-07-29T14:34:32;17.70;99.90
4548;DHT22;2286;51.570;7.090;2023-07-29T14:36:59;17.70;99.90
4548;DHT22;2286;51.570;7.090;2023-07-29T14:39:26;17.60;99.90
4548;DHT22;2286;51.570;7.090;2023-07-29T14:41:53;17.70;99.90
4548;DHT22;2286;51.570;7.090;2023-07-29T14:44:19;18.10;99.90
4548;DHT22;2286;51.570;7.090;2023-07-29T14:46:47;18.10;99.90
4548;DHT22;2286;51.570;7.090;2023-07-29T14:49:14;18.30;99.90
4548;DHT22;2286;51.570;7.090;2023-07-29T14:51:41;18.70;99.90
4548;DHT22;2286;51.570;7.090;2023-07-29T14:54:08;19.50;99.90
4548;DHT22;2286;51.570;7.090;2023-07-29T14:56:35;21.00;99.90
4548;DHT22;2286;51.570;7.090;2023-07-29T14:59:02;22.80;99.90
4548;DHT22;2286;51.570;7.090;2023-07-29T15:01:28;24.20;99.90
4548;DHT22;2286;51.570;7.090;2023-07-29T15:03:57;24.70;99.90
4548;DHT22;2286;51.570;7.090;2023-07-29T15:06:23;25.70;99.90
4548;DHT22;2286;51.570;7.090;2023-07-29T15:08:50;26.80;99.90
4548;DHT22;2286;51.570;7.090;2023-07-29T15:11:17;27.90;61.10
4548;DHT22;2286;51.570;7.090;2023-07-29T15:13:44;28.80;99.90
4548;DHT22;2286;51.570;7.090;2023-07-29T15:16:11;28.00;99.90
4548;DHT22;2286;51.570;7.090;2023-07-29T15:18:37;26.30;1.00
4548;DHT22;2286;51.570;7.090;2023-07-29T15:21:05;25.10;99.90
4548;DHT22;2286;51.570;7.090;2023-07-29T15:23:32;23.50;99.90
4548;DHT22;2286;51.570;7.090;2023-07-29T15:25:59;22.90;22.40
4548;DHT22;2286;51.570;7.090;2023-07-29T15:28:26;22.90;99.90
4548;DHT22;2286;51.570;7.090;2023-07-29T15:30:53;22.80;99.90
4548;DHT22;2286;51.570;7.090;2023-07-29T15:33:20;22.90;1.00
4548;DHT22;2286;51.570;7.090;2023-07-29T15:35:46;22.90;1.00
4548;DHT22;2286;51.570;7.090;2023-07-29T15:38:15;23.60;99.90
4548;DHT22;2286;51.570;7.090;2023-07-29T15:40:42;24.60;1.00
4548;DHT22;2286;51.570;7.090;2023-07-29T15:43:09;24.90;99.90
4548;DHT22;2286;51.570;7.090;2023-07-29T15:45:35;24.70;99.90
4548;DHT22;2286;51.570;7.090;2023-07-29T15:48:02;24.80;66.70
4548;DHT22;2286;51.570;7.090;2023-07-29T15:50:29;24.70;99.90
4548;DHT22;2286;51.570;7.090;2023-07-29T15:52:56;24.50;1.00
4548;DHT22;2286;51.570;7.090;2023-07-29T15:55:24;24.30;1.00
4548;DHT22;2286;51.570;7.090;2023-07-29T15:57:51;23.80;1.00
4548;DHT22;2286;51.570;7.090;2023-07-29T16:00:18;23.90;1.00
4548;DHT22;2286;51.570;7.090;2023-07-29T16:02:45;24.00;99.90
4548;DHT22;2286;51.570;7.090;2023-07-29T16:05:11;25.60;99.90
4548;DHT22;2286;51.570;7.090;2023-07-29T16:07:38;28.40;99.90